createdAt,value
2019-04-23T00:00:03.423Z,97354.19
2019-04-23T00:02:24.143Z,97360.73
2019-04-23T00:04:54.177Z,97345.44
2019-04-23T00:07:35.691Z,97345.35
2019-04-23T00:10:03.428Z,97348.25
2019-04-23T00:12:38.959Z,97341.27
2019-04-23T00:17:37.134Z,97348.92
2019-04-23T00:20:09.863Z,97342.58
2019-04-23T00:22:44.891Z,97340.14
2019-04-23T00:25:33.988Z,97341.83
2019-04-23T00:27:50.272Z,97340.48
2019-04-23T00:30:18.847Z,97340.61
2019-04-23T00:32:48.084Z,97335.05
2019-04-23T00:35:18.754Z,97337.47
2019-04-23T00:37:55.151Z,97334.33
2019-04-23T00:40:27.917Z,97329.55
2019-04-23T00:43:02.079Z,97328.52
2019-04-23T00:48:11.306Z,97330.30
2019-04-23T00:53:04.530Z,97326.55
2019-04-23T00:58:12.860Z,97329.55
2019-04-23T01:03:12.550Z,97329.17
2019-04-23T01:05:41.174Z,97328.43
2019-04-23T01:08:18.585Z,97322.38
2019-04-23T01:11:20.026Z,97323.32
2019-04-23T01:13:47.503Z,97327.81
2019-04-23T01:16:11.712Z,97318.92
2019-04-23T01:18:51.466Z,97315.83
2019-04-23T01:21:01.085Z,97314.89
2019-04-23T01:23:42.614Z,97320.22
2019-04-23T01:26:32.995Z,97318.63
2019-04-23T01:29:06.986Z,97324.80
2019-04-23T01:31:33.117Z,97321.05
2019-04-23T01:34:13.469Z,97316.13
2019-04-23T01:36:35.966Z,97314.25
2019-04-23T01:39:23.118Z,97321.31
2019-04-23T01:41:50.663Z,97316.21
2019-04-23T01:44:21.828Z,97317.37
2019-04-23T01:49:31.198Z,97319.77
2019-04-23T01:54:25.576Z,97311.14
2019-04-23T01:57:06.303Z,97314.14
2019-04-23T01:59:31.877Z,97310.67
2019-04-23T02:02:06.828Z,97306.05
2019-04-23T02:04:34.623Z,97310.58
2019-04-23T02:07:06.553Z,97311.61
2019-04-23T02:09:43.441Z,97311.04
2019-04-23T02:12:11.437Z,97302.70
2019-04-23T02:14:43.584Z,97305.57
2019-04-23T02:17:34.063Z,97305.50
2019-04-23T02:19:46.726Z,97300.96
2019-04-23T02:22:27.987Z,97304.44
2019-04-23T02:24:59.694Z,97305.88
2019-04-23T02:27:19.314Z,97305.39
2019-04-23T02:32:29.706Z,97294.17
2019-04-23T02:35:09.661Z,97288.28
2019-04-23T02:37:45.930Z,97284.03
2019-04-23T02:40:14.210Z,97281.97
2019-04-23T02:42:51.875Z,97266.02
2019-04-23T02:48:03.383Z,97273.25
2019-04-23T02:50:34.909Z,97270.61
2019-04-23T02:55:41.475Z,97268.52
2019-04-23T02:57:44.124Z,97263.67
2019-04-23T03:03:01.700Z,97260.38
2019-04-23T03:05:24.515Z,97253.08
2019-04-23T03:07:53.277Z,97252.09
2019-04-23T03:10:32.467Z,97250.84
2019-04-23T03:13:01.612Z,97253.01
2019-04-23T03:18:21.012Z,97240.55
2019-04-23T03:23:50.059Z,97241.57
2019-04-23T03:29:06.535Z,97238.23
2019-04-23T03:33:08.546Z,97231.55
2019-04-23T03:34:02.877Z,97237.86
2019-04-23T03:38:48.691Z,97233.34
2019-04-23T03:48:51.153Z,97219.25
2019-04-23T03:51:28.771Z,97214.89
2019-04-23T03:54:23.475Z,97217.41
2019-04-23T03:59:03.511Z,97210.80
2019-04-23T04:01:58.132Z,97204.88
2019-04-23T04:04:20.233Z,97210.53
2019-04-23T04:06:43.713Z,97208.85
2019-04-23T04:09:24.153Z,97210.12
2019-04-23T04:11:29.184Z,97208.89
2019-04-23T04:14:30.095Z,97212.58
2019-04-23T04:19:24.693Z,97211.31
2019-04-23T04:24:27.523Z,97208.28
2019-04-23T04:26:59.461Z,97209.81
2019-04-23T04:29:39.727Z,97203.70
2019-04-23T04:39:40.342Z,97197.08
2019-04-23T04:42:10.288Z,97192.51
2019-04-23T04:44:41.136Z,97189.52
2019-04-23T04:49:50.940Z,97192.59
2019-04-23T04:54:30.835Z,97192.31
2019-04-23T04:57:20.867Z,97189.99
2019-04-23T05:00:06.745Z,97189.48
2019-04-23T05:02:27.353Z,97181.69
2019-04-23T05:04:55.952Z,97183.17
2019-04-23T05:07:40.160Z,97192.80
2019-04-23T05:10:07.374Z,97192.19
2019-04-23T05:20:12.862Z,97195.68
2019-04-23T05:22:52.625Z,97193.77
2019-04-23T05:25:10.976Z,97191.58
2019-04-23T05:27:56.804Z,97193.54
2019-04-23T05:30:23.029Z,97195.53
2019-04-23T05:32:52.033Z,97190.63
2019-04-23T05:35:40.684Z,97192.41
2019-04-23T05:40:37.248Z,97182.42
2019-04-23T05:42:52.169Z,97183.84
2019-04-23T05:45:30.235Z,97174.63
2019-04-23T05:48:09.902Z,97175.81
2019-04-23T05:50:40.866Z,97173.20
2019-04-23T05:53:07.727Z,97175.67
2019-04-23T05:55:34.351Z,97176.93
2019-04-23T05:58:15.375Z,97168.17
2019-04-23T06:00:51.522Z,97167.52
2019-04-23T06:06:01.250Z,97160.50
2019-04-23T06:08:25.560Z,97160.91
2019-04-23T06:11:00.878Z,97166.23
2019-04-23T06:13:26.040Z,97164.41
2019-04-23T06:15:58.167Z,97166.51
2019-04-23T06:18:30.489Z,97162.70
2019-04-23T06:21:06.830Z,97161.75
2019-04-23T06:23:38.160Z,97167.80
2019-04-23T06:26:19.228Z,97163.70
2019-04-23T06:28:46.687Z,97164.80
2019-04-23T06:31:15.201Z,97165.01
2019-04-23T06:33:47.983Z,97168.77
2019-04-23T06:36:21.930Z,97166.19
2019-04-23T06:41:23.910Z,97170.35
2019-04-23T06:44:08.815Z,97176.00
2019-04-23T06:46:28.687Z,97179.72
2019-04-23T06:49:00.853Z,97174.35
2019-04-23T06:51:34.892Z,97179.84
2019-04-23T06:54:04.891Z,97180.81
2019-04-23T06:56:43.320Z,97175.81
2019-04-23T06:59:12.879Z,97178.16
2019-04-23T07:01:51.056Z,97184.58
2019-04-23T07:04:15.253Z,97181.87
2019-04-23T07:06:58.202Z,97182.71
2019-04-23T07:12:05.316Z,97179.30
2019-04-23T07:14:26.129Z,97181.46
2019-04-23T07:16:52.807Z,97179.63
2019-04-23T07:22:03.300Z,97179.92
2019-04-23T07:24:28.689Z,97181.61
2019-04-23T07:26:55.910Z,97173.41
2019-04-23T07:29:31.397Z,97171.88
2019-04-23T07:32:05.692Z,97170.52
2019-04-23T07:34:41.942Z,97171.64
2019-04-23T07:37:22.953Z,97167.27
2019-04-23T07:39:58.604Z,97169.56
2019-04-23T07:42:38.364Z,97161.32
2019-04-23T07:44:59.444Z,97163.50
2019-04-23T07:50:09.856Z,97156.06
2019-04-23T07:52:35.567Z,97157.87
2019-04-23T07:57:34.057Z,97156.89
2019-04-23T08:00:27.604Z,97152.39
2019-04-23T08:02:33.585Z,97148.23
2019-04-23T08:05:21.549Z,97155.47
2019-04-23T08:07:45.320Z,97153.11
2019-04-23T08:10:17.014Z,97144.25
2019-04-23T08:12:48.096Z,97137.03
2019-04-23T08:15:23.069Z,97138.20
2019-04-23T08:17:56.229Z,97137.34
2019-04-23T08:20:22.983Z,97135.06
2019-04-23T08:23:06.766Z,97132.47
2019-04-23T08:25:35.497Z,97127.30
2019-04-23T08:28:11.867Z,97126.59
2019-04-23T08:30:42.417Z,97122.92
2019-04-23T08:35:42.956Z,97123.45
2019-04-23T08:38:21.169Z,97116.32
2019-04-23T08:40:57.217Z,97122.39
2019-04-23T08:43:31.488Z,97120.58
2019-04-23T08:45:53.399Z,97123.31
2019-04-23T08:48:27.815Z,97122.80
2019-04-23T08:50:57.952Z,97139.33
2019-04-23T08:53:37.637Z,97128.44
2019-04-23T09:03:40.851Z,97133.04
2019-04-23T09:06:10.754Z,97139.52
2019-04-23T09:08:44.382Z,97135.23
2019-04-23T09:11:33.596Z,97130.30
2019-04-23T09:18:52.782Z,97122.91
2019-04-23T09:21:22.560Z,97119.58
2019-04-23T09:23:54.017Z,97113.30
2019-04-23T09:26:26.104Z,97116.16
2019-04-23T09:34:20.707Z,97114.55
2019-04-23T09:39:52.234Z,97112.30
2019-04-23T09:42:24.092Z,97115.22
2019-04-23T09:45:03.690Z,97114.67
2019-04-23T09:47:46.090Z,97115.38
2019-04-23T09:50:15.684Z,97112.31
2019-04-23T09:52:57.289Z,97114.06
2019-04-23T09:57:55.595Z,97105.89
2019-04-23T10:00:34.666Z,97115.38
2019-04-23T10:02:45.701Z,97109.35
2019-04-23T10:05:14.127Z,97108.85
2019-04-23T10:07:44.143Z,97111.45
2019-04-23T10:10:05.375Z,97112.22
2019-04-23T10:12:35.911Z,97104.25
2019-04-23T10:15:13.783Z,97106.45
2019-04-23T10:17:40.296Z,97103.59
2019-04-23T10:20:11.052Z,97111.59
2019-04-23T10:22:42.226Z,97102.42
2019-04-23T10:25:12.982Z,97103.41
2019-04-23T10:27:43.367Z,97099.70
2019-04-23T10:30:14.493Z,97098.66
2019-04-23T10:32:45.296Z,97101.34
2019-04-23T10:35:28.893Z,97100.58
2019-04-23T10:37:56.555Z,97091.94
2019-04-23T10:40:25.972Z,97091.80
2019-04-23T10:42:54.375Z,97085.86
2019-04-23T10:45:44.715Z,97085.09
2019-04-23T10:51:09.067Z,97092.08
2019-04-23T10:53:39.935Z,97090.45
2019-04-23T10:56:11.329Z,97089.91
2019-04-23T10:58:38.360Z,97093.54
2019-04-23T11:01:16.413Z,97092.95
2019-04-23T11:03:58.886Z,97102.46
2019-04-23T11:06:23.515Z,97101.10
2019-04-23T11:09:06.198Z,97090.95
2019-04-23T11:11:40.743Z,97093.31
2019-04-23T11:14:12.277Z,97087.92
2019-04-23T11:16:49.258Z,97089.84
2019-04-23T11:21:42.839Z,97097.10
2019-04-23T11:24:27.511Z,97090.36
2019-04-23T11:29:22.549Z,97093.00
2019-04-23T11:31:58.329Z,97088.28
2019-04-23T11:34:47.824Z,97093.69
2019-04-23T11:39:31.846Z,97085.48
2019-04-23T11:42:06.660Z,97092.41
2019-04-23T11:44:36.504Z,97086.86
2019-04-23T11:47:07.768Z,97094.91
2019-04-23T11:52:29.093Z,97105.70
2019-04-23T11:54:39.021Z,97098.86
2019-04-23T11:57:29.842Z,97092.93
2019-04-23T11:59:47.322Z,97096.89
2019-04-23T12:02:31.122Z,97091.48
2019-04-23T12:05:20.802Z,97092.99
2019-04-23T12:07:41.363Z,97099.75
2019-04-23T12:10:31.677Z,97087.83
2019-04-23T12:12:49.533Z,97091.63
2019-04-23T12:15:32.671Z,97087.25
2019-04-23T12:18:04.872Z,97088.67
2019-04-23T12:20:33.641Z,97092.08
2019-04-23T12:23:28.181Z,97095.33
2019-04-23T12:25:34.095Z,97105.34
2019-04-23T12:27:59.568Z,97109.12
2019-04-23T12:30:42.077Z,97106.91
2019-04-23T12:33:11.594Z,97111.48
2019-04-23T12:35:39.048Z,97110.42
2019-04-23T12:38:16.886Z,97117.45
2019-04-23T12:40:46.030Z,97122.52
2019-04-23T12:45:47.001Z,97126.54
2019-04-23T12:48:33.825Z,97120.86
2019-04-23T12:51:09.421Z,97118.33
2019-04-23T12:56:16.984Z,97118.53
2019-04-23T12:58:27.635Z,97118.42
2019-04-23T13:00:58.225Z,97108.25
2019-04-23T13:03:37.235Z,97120.20
2019-04-23T13:05:59.181Z,97119.72
2019-04-23T13:08:46.618Z,97114.19
2019-04-23T13:11:15.233Z,97109.66
2019-04-23T13:13:48.858Z,97109.88
2019-04-23T13:16:18.129Z,97109.45
2019-04-23T13:19:14.446Z,97102.55
2019-04-23T13:21:38.432Z,97101.11
2019-04-23T13:23:49.433Z,97099.89
2019-04-23T13:26:17.821Z,97100.55
2019-04-23T13:28:52.513Z,97094.90
2019-04-23T13:31:30.067Z,97091.41
2019-04-23T13:33:58.049Z,97093.90
2019-04-23T13:39:10.045Z,97094.30
2019-04-23T13:41:32.402Z,97105.34
2019-04-23T13:44:04.549Z,97094.59
2019-04-23T13:46:34.465Z,97094.28
2019-04-23T13:49:18.434Z,97089.42
2019-04-23T13:52:12.802Z,97100.30
2019-04-23T13:54:44.072Z,97094.51
2019-04-23T13:57:23.921Z,97090.16
2019-04-23T13:59:29.034Z,97083.46
2019-04-23T14:01:46.937Z,97079.53
2019-04-23T14:07:23.384Z,97089.31
2019-04-23T14:10:00.574Z,97089.03
2019-04-23T14:12:24.183Z,97093.06
2019-04-23T14:15:04.276Z,97087.88
2019-04-23T14:17:38.108Z,97083.76
2019-04-23T14:20:03.813Z,97082.86
2019-04-23T14:27:52.126Z,97079.13
2019-04-23T14:30:23.971Z,97082.63
2019-04-23T14:32:45.449Z,97077.74
2019-04-23T14:38:09.427Z,97078.11
2019-04-23T14:40:26.622Z,97087.50
2019-04-23T14:43:07.394Z,97074.13
2019-04-23T14:45:42.586Z,97070.00
2019-04-23T14:53:16.624Z,97076.99
2019-04-23T15:00:54.061Z,97078.98
2019-04-23T15:03:28.744Z,97077.30
2019-04-23T15:06:05.035Z,97072.78
2019-04-23T15:08:28.731Z,97070.39
2019-04-23T15:11:06.813Z,97071.41
2019-04-23T15:13:28.265Z,97063.49
2019-04-23T15:16:07.965Z,97061.51
2019-04-23T15:18:44.758Z,97069.38
2019-04-23T15:21:37.648Z,97060.63
2019-04-23T15:28:31.510Z,97059.19
2019-04-23T15:31:33.210Z,97054.66
2019-04-23T15:39:13.870Z,97055.59
2019-04-23T15:41:39.640Z,97055.47
2019-04-23T15:44:08.620Z,97053.63
2019-04-23T15:49:19.834Z,97054.54
2019-04-23T15:51:47.441Z,97057.41
2019-04-23T15:54:19.661Z,97061.02
2019-04-23T15:59:24.354Z,97060.70
2019-04-23T16:01:39.544Z,97060.97
2019-04-23T16:03:51.744Z,97064.26
2019-04-23T16:06:25.404Z,97065.35
2019-04-23T16:09:33.816Z,97061.89
2019-04-23T16:11:47.376Z,97048.80
2019-04-23T16:17:04.523Z,97048.06
2019-04-23T16:19:53.440Z,97048.38
2019-04-23T16:22:20.225Z,97050.80
2019-04-23T16:24:55.525Z,97050.08
2019-04-23T16:27:14.961Z,97049.66
2019-04-23T16:30:09.720Z,97054.70
2019-04-23T16:32:57.866Z,97055.59
2019-04-23T16:38:10.163Z,97055.09
2019-04-23T16:40:33.101Z,97056.45
2019-04-23T16:43:07.077Z,97054.72
2019-04-23T16:48:19.953Z,97056.30
2019-04-23T16:50:41.716Z,97052.92
2019-04-23T16:55:53.375Z,97054.08
2019-04-23T16:58:21.872Z,97053.60
2019-04-23T17:00:51.630Z,97055.84
2019-04-23T17:13:30.887Z,97050.58
2019-04-23T17:16:06.715Z,97049.64
2019-04-23T17:18:31.289Z,97047.67
2019-04-23T17:21:10.229Z,97050.28
2019-04-23T17:26:17.178Z,97045.66
2019-04-23T17:28:35.893Z,97039.66
2019-04-23T17:38:56.866Z,97046.68
2019-04-23T17:41:41.722Z,97044.97
2019-04-23T17:44:18.052Z,97048.84
2019-04-23T17:46:47.039Z,97047.66
2019-04-23T17:51:48.836Z,97051.45
2019-04-23T17:54:19.414Z,97053.81
2019-04-23T17:59:28.324Z,97057.36
2019-04-23T18:02:21.154Z,97049.94
2019-04-23T18:04:36.613Z,97060.64
2019-04-23T18:07:23.185Z,97064.53
2019-04-23T18:09:57.058Z,97065.84
2019-04-23T18:12:14.729Z,97069.86
2019-04-23T18:14:27.068Z,97079.94
2019-04-23T18:17:13.063Z,97077.05
2019-04-23T18:19:53.570Z,97075.64
2019-04-23T18:22:22.118Z,97072.70
2019-04-23T18:25:09.582Z,97078.13
2019-04-23T18:27:48.342Z,97075.02
2019-04-23T18:30:35.219Z,97075.47
2019-04-23T18:35:40.461Z,97070.27
2019-04-23T18:43:32.716Z,97077.33
2019-04-23T18:51:03.716Z,97090.77
2019-04-23T18:53:43.545Z,97097.58
2019-04-23T18:58:48.543Z,97097.94
2019-04-23T19:01:11.319Z,97100.16
2019-04-23T19:04:07.174Z,97107.69
2019-04-23T19:06:37.740Z,97102.77
2019-04-23T19:17:33.610Z,97114.63
2019-04-23T19:27:18.373Z,97122.60
2019-04-23T19:29:52.021Z,97119.88
2019-04-23T19:32:33.581Z,97123.56
2019-04-23T19:37:18.361Z,97125.23
2019-04-23T19:40:04.819Z,97131.62
2019-04-23T19:42:18.024Z,97132.73
2019-04-23T19:44:54.444Z,97138.80
2019-04-23T19:47:38.538Z,97136.56
2019-04-23T19:50:02.104Z,97138.88
2019-04-23T19:52:52.134Z,97143.97
2019-04-23T19:54:58.495Z,97141.98
2019-04-23T19:57:42.735Z,97147.80
2019-04-23T20:00:13.076Z,97150.94
2019-04-23T20:02:58.201Z,97155.08
2019-04-23T20:05:10.897Z,97158.20
2019-04-23T20:07:54.865Z,97159.50
2019-04-23T20:10:12.369Z,97161.14
2019-04-23T20:13:01.524Z,97159.69
2019-04-23T20:15:08.282Z,97170.91
2019-04-23T20:17:51.603Z,97165.70
2019-04-23T20:20:26.513Z,97162.01
2019-04-23T20:22:56.771Z,97168.16
2019-04-23T20:25:53.720Z,97172.97
2019-04-23T20:36:05.588Z,97179.77
2019-04-23T20:40:56.921Z,97186.90
2019-04-23T20:43:27.237Z,97181.55
2019-04-23T20:45:59.992Z,97179.83
2019-04-23T20:48:32.509Z,97183.47
2019-04-23T20:51:20.326Z,97185.62
2019-04-23T20:53:38.274Z,97185.10
2019-04-23T20:58:43.927Z,97189.13
2019-04-23T21:01:22.268Z,97187.84
2019-04-23T21:03:51.570Z,97189.60
2019-04-23T21:09:10.035Z,97187.59
2019-04-23T21:11:32.651Z,97187.67
2019-04-23T21:14:03.318Z,97186.25
2019-04-23T21:19:10.123Z,97191.04
2019-04-23T21:21:26.241Z,97192.06
2019-04-23T21:23:55.068Z,97192.84
2019-04-23T21:26:35.782Z,97195.16
2019-04-23T21:29:02.169Z,97192.52
2019-04-23T21:31:48.606Z,97201.05
2019-04-23T21:34:35.360Z,97196.33
2019-04-23T21:36:45.705Z,97194.72
2019-04-23T21:42:14.698Z,97204.28
2019-04-23T21:44:28.884Z,97212.48
2019-04-23T21:47:04.679Z,97206.80
2019-04-23T21:52:05.021Z,97210.64
2019-04-23T21:54:39.503Z,97212.72
2019-04-23T21:57:19.534Z,97212.75
2019-04-23T21:59:44.663Z,97210.55
2019-04-23T22:02:14.981Z,97213.78
2019-04-23T22:04:44.998Z,97208.81
2019-04-23T22:07:15.775Z,97208.52
2019-04-23T22:09:50.425Z,97212.13
2019-04-23T22:17:27.216Z,97218.52
2019-04-23T22:20:03.398Z,97225.64
2019-04-23T22:22:32.035Z,97223.50
2019-04-23T22:24:58.618Z,97218.67
2019-04-23T22:27:26.092Z,97218.22
2019-04-23T22:29:59.530Z,97220.59
2019-04-23T22:32:40.451Z,97216.71
2019-04-23T22:35:07.828Z,97214.75
2019-04-23T22:37:42.431Z,97219.12
2019-04-23T22:40:09.439Z,97218.30
2019-04-23T22:43:07.348Z,97222.69
2019-04-23T22:45:16.067Z,97222.59
2019-04-23T22:47:47.978Z,97214.06
2019-04-23T22:50:19.098Z,97216.11
2019-04-23T22:52:53.857Z,97213.06
2019-04-23T22:55:12.718Z,97211.73
2019-04-23T23:00:30.039Z,97208.97
2019-04-23T23:03:06.373Z,97215.91
2019-04-23T23:05:50.657Z,97225.38
2019-04-23T23:08:11.394Z,97216.98
2019-04-23T23:10:46.457Z,97216.64
2019-04-23T23:13:16.499Z,97226.33
2019-04-23T23:15:51.333Z,97223.64
2019-04-23T23:20:55.861Z,97222.51
2019-04-23T23:23:21.047Z,97217.61
2019-04-23T23:31:04.019Z,97223.91
2019-04-23T23:33:23.366Z,97221.25
2019-04-23T23:35:58.868Z,97227.34
2019-04-23T23:38:33.493Z,97230.22
2019-04-23T23:41:12.925Z,97235.49
2019-04-23T23:43:30.216Z,97231.98
2019-04-23T23:46:13.767Z,97230.52
2019-04-23T23:48:34.993Z,97231.70
2019-04-23T23:52:21.747Z,97230.17
2019-04-23T23:54:52.648Z,97235.20
2019-04-23T23:57:23.365Z,97237.99
